createdAt,value
2022-08-28T00:00:52.940Z,24.30
2022-08-28T00:01:55.527Z,26.35
2022-08-28T00:02:58.132Z,24.58
2022-08-28T00:04:01.069Z,25.77
2022-08-28T00:05:03.289Z,25.48
2022-08-28T00:06:06.035Z,24.40
2022-08-28T00:07:08.136Z,25.27
2022-08-28T00:08:11.996Z,25.00
2022-08-28T00:09:13.848Z,22.80
2022-08-28T00:10:18.118Z,23.60
2022-08-28T00:11:21.113Z,23.50
2022-08-28T00:12:23.249Z,23.55
2022-08-28T00:13:25.719Z,23.52
2022-08-28T00:14:27.978Z,24.25
2022-08-28T00:15:34.937Z,24.13
2022-08-28T00:16:36.922Z,24.48
2022-08-28T00:17:39.760Z,24.42
2022-08-28T00:18:41.464Z,26.15
2022-08-28T00:19:43.235Z,25.75
2022-08-28T00:20:46.339Z,25.50
2022-08-28T00:21:49.989Z,25.20
2022-08-28T00:22:52.653Z,26.30
2022-08-28T00:23:54.402Z,26.75
2022-08-28T00:24:56.083Z,26.65
2022-08-28T00:25:57.748Z,25.98
2022-08-28T00:27:18.455Z,25.33
2022-08-28T00:28:24.258Z,25.35
2022-08-28T00:29:26.367Z,26.95
2022-08-28T00:30:35.431Z,25.58
2022-08-28T00:31:39.953Z,25.38
2022-08-28T00:32:41.644Z,26.05
2022-08-28T00:33:43.491Z,25.85
2022-08-28T00:34:45.146Z,25.50
2022-08-28T00:35:48.140Z,26.23
2022-08-28T00:36:49.851Z,24.98
2022-08-28T00:37:54.929Z,25.02
2022-08-28T00:38:59.675Z,25.55
2022-08-28T00:40:01.761Z,23.80
2022-08-28T00:41:04.899Z,23.88
2022-08-28T00:42:07.009Z,24.52
2022-08-28T00:43:10.153Z,24.73
2022-08-28T00:44:21.462Z,25.58
2022-08-28T00:45:25.217Z,23.73
2022-08-28T00:46:26.975Z,24.10
2022-08-28T00:47:28.691Z,25.92
2022-08-28T00:48:30.763Z,25.15
2022-08-28T00:49:35.982Z,23.65
2022-08-28T00:51:00.407Z,25.20
2022-08-28T00:52:07.910Z,25.40
2022-08-28T00:53:09.630Z,25.33
2022-08-28T00:54:11.435Z,26.15
2022-08-28T00:55:20.159Z,25.65
2022-08-28T00:56:22.394Z,26.27
2022-08-28T00:57:40.845Z,25.58
2022-08-28T00:58:45.171Z,24.35
2022-08-28T00:59:47.084Z,24.67
2022-08-28T01:00:51.618Z,24.52
2022-08-28T01:01:58.487Z,23.35
2022-08-28T01:03:00.909Z,24.92
2022-08-28T01:04:06.141Z,24.48
2022-08-28T01:05:09.611Z,24.38
2022-08-28T01:06:14.751Z,25.02
2022-08-28T01:07:17.482Z,23.52
2022-08-28T01:08:19.886Z,23.73
2022-08-28T01:09:29.257Z,23.58
2022-08-28T01:10:34.538Z,24.63
2022-08-28T01:11:36.378Z,25.15
2022-08-28T01:12:38.331Z,24.55
2022-08-28T01:13:42.630Z,25.63
2022-08-28T01:14:48.401Z,26.65
2022-08-28T01:15:51.322Z,24.80
2022-08-28T01:16:56.082Z,25.42
2022-08-28T01:18:07.355Z,25.27
2022-08-28T01:19:20.562Z,23.33
2022-08-28T01:20:26.987Z,25.92
2022-08-28T01:21:53.272Z,23.05
2022-08-28T01:23:34.447Z,23.95
2022-08-28T01:24:38.007Z,24.30
2022-08-28T01:25:40.787Z,25.65
2022-08-28T01:26:43.383Z,24.13
2022-08-28T01:27:45.160Z,24.15
2022-08-28T01:28:47.160Z,24.55
2022-08-28T01:29:49.650Z,22.98
2022-08-28T01:30:51.443Z,24.45
2022-08-28T01:31:53.174Z,24.75
2022-08-28T01:32:56.711Z,23.98
2022-08-28T01:34:01.723Z,24.10
2022-08-28T01:35:06.210Z,23.77
2022-08-28T01:36:08.303Z,24.08
2022-08-28T01:37:10.028Z,22.73
2022-08-28T01:38:11.974Z,24.05
2022-08-28T01:39:23.865Z,23.55
2022-08-28T01:40:36.327Z,22.05
2022-08-28T01:41:40.638Z,22.40
2022-08-28T01:42:43.657Z,21.50
2022-08-28T01:43:45.444Z,21.17
2022-08-28T01:44:47.621Z,20.90
2022-08-28T01:45:53.708Z,23.17
2022-08-28T01:46:57.956Z,25.52
2022-08-28T01:47:59.683Z,25.05
2022-08-28T01:49:01.435Z,23.35
2022-08-28T01:50:06.949Z,22.38
2022-08-28T01:51:10.282Z,21.85
2022-08-28T01:52:12.022Z,23.50
2022-08-28T01:53:15.878Z,23.60
2022-08-28T01:54:17.575Z,23.92
2022-08-28T01:55:21.432Z,23.33
2022-08-28T01:56:23.498Z,24.67
2022-08-28T01:57:25.398Z,23.95
2022-08-28T01:58:28.310Z,24.33
2022-08-28T01:59:33.214Z,22.58
2022-08-28T02:00:35.263Z,23.30
2022-08-28T02:01:37.262Z,23.92
2022-08-28T02:02:39.869Z,22.77
2022-08-28T02:03:43.149Z,24.50
2022-08-28T02:04:48.071Z,22.33
2022-08-28T02:05:50.847Z,23.20
2022-08-28T02:06:52.539Z,23.80
2022-08-28T02:07:54.293Z,24.35
2022-08-28T02:08:56.111Z,23.77
2022-08-28T02:09:57.806Z,23.45
2022-08-28T02:10:59.495Z,23.45
2022-08-28T02:12:01.566Z,24.60
2022-08-28T02:13:04.802Z,21.70
2022-08-28T02:14:06.622Z,24.70
2022-08-28T02:15:08.715Z,24.60
2022-08-28T02:16:10.897Z,24.58
2022-08-28T02:17:12.643Z,24.33
2022-08-28T02:18:14.947Z,24.15
2022-08-28T02:19:17.342Z,24.73
2022-08-28T02:20:19.557Z,23.10
2022-08-28T02:21:21.339Z,24.35
2022-08-28T02:22:23.002Z,24.40
2022-08-28T02:23:24.817Z,25.25
2022-08-28T02:24:26.578Z,24.92
2022-08-28T02:25:29.069Z,25.85
2022-08-28T02:26:32.241Z,25.42
2022-08-28T02:27:34.141Z,24.00
2022-08-28T02:28:37.397Z,24.23
2022-08-28T02:29:39.262Z,25.15
2022-08-28T02:30:41.145Z,23.45
2022-08-28T02:31:42.899Z,22.45
2022-08-28T02:32:46.247Z,24.23
2022-08-28T02:33:48.114Z,25.05
2022-08-28T02:34:49.907Z,25.02
2022-08-28T02:35:52.206Z,24.77
2022-08-28T02:36:53.939Z,24.88
2022-08-28T02:37:55.699Z,23.88
2022-08-28T02:38:58.600Z,24.63
2022-08-28T02:40:00.680Z,24.63
2022-08-28T02:41:04.207Z,24.65
2022-08-28T02:42:06.449Z,25.70
2022-08-28T02:43:08.237Z,23.92
2022-08-28T02:44:10.089Z,24.48
2022-08-28T02:45:14.302Z,24.67
2022-08-28T02:46:16.427Z,25.77
2022-08-28T02:47:19.638Z,24.92
2022-08-28T02:48:21.421Z,22.83
2022-08-28T02:49:23.970Z,22.58
2022-08-28T02:50:25.694Z,24.48
2022-08-28T02:51:31.128Z,23.48
2022-08-28T02:52:33.287Z,24.10
2022-08-28T02:53:35.829Z,24.30
2022-08-28T02:54:40.951Z,25.02
2022-08-28T02:55:42.629Z,23.23
2022-08-28T02:56:45.322Z,22.00
2022-08-28T02:57:48.512Z,22.45
2022-08-28T02:58:50.623Z,22.05
2022-08-28T02:59:52.328Z,23.15
2022-08-28T03:00:54.415Z,22.38
2022-08-28T03:01:56.132Z,23.48
2022-08-28T03:02:57.880Z,22.35
2022-08-28T03:04:03.087Z,24.02
2022-08-28T03:05:05.165Z,23.90
2022-08-28T03:06:08.114Z,23.33
2022-08-28T03:07:13.518Z,23.45
2022-08-28T03:08:15.409Z,23.17
2022-08-28T03:09:17.094Z,24.08
2022-08-28T03:10:19.507Z,22.30
2022-08-28T03:11:21.303Z,21.08
2022-08-28T03:12:24.301Z,22.85
2022-08-28T03:13:27.239Z,24.27
2022-08-28T03:14:29.595Z,24.00
2022-08-28T03:15:31.522Z,23.33
2022-08-28T03:16:34.260Z,23.35
2022-08-28T03:17:36.862Z,23.70
2022-08-28T03:18:38.631Z,24.42
2022-08-28T03:19:40.305Z,23.98
2022-08-28T03:20:42.407Z,23.83
2022-08-28T03:21:44.208Z,24.27
2022-08-28T03:23:04.678Z,22.73
2022-08-28T03:24:06.475Z,23.15
2022-08-28T03:25:09.049Z,23.70
2022-08-28T03:26:14.033Z,22.23
2022-08-28T03:27:15.719Z,22.90
2022-08-28T03:28:17.450Z,21.52
2022-08-28T03:29:19.183Z,22.95
2022-08-28T03:30:22.688Z,22.83
2022-08-28T03:31:27.966Z,20.83
2022-08-28T03:32:31.678Z,21.27
2022-08-28T03:33:34.134Z,23.65
2022-08-28T03:34:35.923Z,22.08
2022-08-28T03:35:37.753Z,24.02
2022-08-28T03:36:39.467Z,23.88
2022-08-28T03:37:41.164Z,23.58
2022-08-28T03:38:43.648Z,24.40
2022-08-28T03:39:45.595Z,23.48
2022-08-28T03:40:47.921Z,25.23
2022-08-28T03:41:49.649Z,24.55
2022-08-28T03:42:53.278Z,24.70
2022-08-28T03:43:59.927Z,23.27
2022-08-28T03:45:01.762Z,22.80
2022-08-28T03:46:05.816Z,22.33
2022-08-28T03:47:08.892Z,21.85
2022-08-28T03:48:10.626Z,23.55
2022-08-28T03:49:12.340Z,23.88
2022-08-28T03:50:14.264Z,24.13
2022-08-28T03:51:19.754Z,23.50
2022-08-28T03:52:27.217Z,25.38
2022-08-28T03:53:30.070Z,25.02
2022-08-28T03:54:32.642Z,25.23
2022-08-28T03:55:34.350Z,25.92
2022-08-28T03:56:36.052Z,26.13
2022-08-28T03:57:38.423Z,25.23
2022-08-28T03:58:40.760Z,24.63
2022-08-28T03:59:42.431Z,23.80
2022-08-28T04:00:45.105Z,23.83
2022-08-28T04:01:47.463Z,24.33
2022-08-28T04:02:49.225Z,23.75
2022-08-28T04:03:51.467Z,24.48
2022-08-28T04:04:53.222Z,23.45
2022-08-28T04:05:55.005Z,25.60
2022-08-28T04:06:57.439Z,23.67
2022-08-28T04:07:59.102Z,25.58
2022-08-28T04:09:01.283Z,26.40
2022-08-28T04:10:04.295Z,28.13
2022-08-28T04:11:06.681Z,25.80
2022-08-28T04:12:09.054Z,26.05
2022-08-28T04:13:12.209Z,26.90
2022-08-28T04:14:13.900Z,24.95
2022-08-28T04:15:15.723Z,24.95
2022-08-28T04:16:19.085Z,25.65
2022-08-28T04:17:20.978Z,25.42
2022-08-28T04:18:22.741Z,27.25
2022-08-28T04:19:27.060Z,25.92
2022-08-28T04:20:29.086Z,25.80
2022-08-28T04:21:31.444Z,26.02
2022-08-28T04:22:33.173Z,25.27
2022-08-28T04:23:38.161Z,25.25
2022-08-28T04:24:39.877Z,23.88
2022-08-28T04:25:41.653Z,27.40
2022-08-28T04:26:43.507Z,25.70
2022-08-28T04:27:45.496Z,25.75
2022-08-28T04:28:48.272Z,26.65
2022-08-28T04:29:50.013Z,26.35
2022-08-28T04:30:56.500Z,27.42
2022-08-28T04:31:58.317Z,26.23
2022-08-28T04:33:00.084Z,25.58
2022-08-28T04:34:04.894Z,24.45
2022-08-28T04:35:09.798Z,26.85
2022-08-28T04:36:15.165Z,25.50
2022-08-28T04:37:17.786Z,24.70
2022-08-28T04:38:19.873Z,25.92
2022-08-28T04:39:21.617Z,24.83
2022-08-28T04:40:24.445Z,26.95
2022-08-28T04:41:27.594Z,27.38
2022-08-28T04:42:29.346Z,26.35
2022-08-28T04:43:31.062Z,26.20
2022-08-28T04:44:32.871Z,25.58
2022-08-28T04:45:40.545Z,26.65
2022-08-28T04:46:42.276Z,24.08
2022-08-28T04:47:44.001Z,25.20
2022-08-28T04:48:45.692Z,24.60
2022-08-28T04:49:47.376Z,24.10
2022-08-28T04:50:49.867Z,26.80
2022-08-28T04:51:51.867Z,24.75
2022-08-28T04:52:54.330Z,24.83
2022-08-28T04:53:57.155Z,24.83
2022-08-28T04:54:58.891Z,24.23
2022-08-28T04:56:04.137Z,24.65
2022-08-28T04:57:06.584Z,26.05
2022-08-28T04:58:08.783Z,24.73
2022-08-28T04:59:11.640Z,24.45
2022-08-28T05:00:14.031Z,24.15
2022-08-28T05:01:18.976Z,24.88
2022-08-28T05:02:20.978Z,25.60
2022-08-28T05:03:23.932Z,25.83
2022-08-28T05:04:26.911Z,26.40
2022-08-28T05:06:33.450Z,24.30
2022-08-28T05:07:35.199Z,27.30
2022-08-28T05:08:36.921Z,24.88
2022-08-28T05:09:38.934Z,24.60
2022-08-28T05:10:41.845Z,24.10
2022-08-28T05:11:44.679Z,25.45
2022-08-28T05:12:46.537Z,25.90
2022-08-28T05:13:49.591Z,23.75
2022-08-28T05:14:51.650Z,26.08
2022-08-28T05:15:53.571Z,25.00
2022-08-28T05:16:57.684Z,25.70
2022-08-28T05:17:59.626Z,24.17
2022-08-28T05:19:02.606Z,23.25
2022-08-28T05:20:05.643Z,24.70
2022-08-28T05:21:20.581Z,24.85
2022-08-28T05:22:23.135Z,23.83
2022-08-28T05:23:25.545Z,24.45
2022-08-28T05:24:27.509Z,22.92
2022-08-28T05:25:29.270Z,23.00
2022-08-28T05:26:31.086Z,22.92
2022-08-28T05:27:32.858Z,24.52
2022-08-28T05:28:34.545Z,23.98
2022-08-28T05:29:36.364Z,23.48
2022-08-28T05:30:39.685Z,23.95
2022-08-28T05:31:41.942Z,23.83
2022-08-28T05:32:43.692Z,23.90
2022-08-28T05:33:47.417Z,23.63
2022-08-28T05:34:49.167Z,24.85
2022-08-28T05:35:50.887Z,24.33
2022-08-28T05:36:52.740Z,23.42
2022-08-28T05:37:54.885Z,22.98
2022-08-28T05:38:58.169Z,23.95
2022-08-28T05:40:00.253Z,23.58
2022-08-28T05:41:03.276Z,22.10
2022-08-28T05:42:05.612Z,23.40
2022-08-28T05:43:07.315Z,23.25
2022-08-28T05:44:11.654Z,21.35
2022-08-28T05:45:13.868Z,22.58
2022-08-28T05:46:17.259Z,23.23
2022-08-28T05:47:21.589Z,22.80
2022-08-28T05:48:23.633Z,22.77
2022-08-28T05:49:25.659Z,23.60
2022-08-28T05:50:27.844Z,22.27
2022-08-28T05:51:29.799Z,22.63
2022-08-28T05:52:31.531Z,21.52
2022-08-28T05:53:35.975Z,23.20
2022-08-28T05:54:37.739Z,22.30
2022-08-28T05:55:42.490Z,22.58
2022-08-28T05:56:45.253Z,23.05
2022-08-28T05:57:47.020Z,22.73
2022-08-28T05:58:48.986Z,24.98
2022-08-28T05:59:51.186Z,23.80
2022-08-28T06:00:52.922Z,24.23
2022-08-28T06:01:54.744Z,23.58
2022-08-28T06:02:56.512Z,24.15
2022-08-28T06:04:01.840Z,24.70
2022-08-28T06:05:04.011Z,24.42
2022-08-28T06:06:07.319Z,23.52
2022-08-28T06:07:12.081Z,23.90
2022-08-28T06:08:14.095Z,23.67
2022-08-28T06:09:29.017Z,24.13
2022-08-28T06:10:31.255Z,23.38
2022-08-28T06:11:33.511Z,24.27
2022-08-28T06:12:36.797Z,22.30
2022-08-28T06:13:39.071Z,22.17
2022-08-28T06:14:40.750Z,22.60
2022-08-28T06:15:44.725Z,22.08
2022-08-28T06:16:52.386Z,19.95
2022-08-28T06:17:54.169Z,21.92
2022-08-28T06:18:57.392Z,20.63
2022-08-28T06:19:59.192Z,20.75
2022-08-28T06:21:02.808Z,22.08
2022-08-28T06:22:07.360Z,23.67
2022-08-28T06:23:10.781Z,21.17
2022-08-28T06:24:13.672Z,21.73
2022-08-28T06:25:15.462Z,22.00
2022-08-28T06:26:17.256Z,19.88
2022-08-28T06:27:19.044Z,20.80
2022-08-28T06:28:24.195Z,22.08
2022-08-28T06:29:27.533Z,22.60
2022-08-28T06:30:29.285Z,22.00
2022-08-28T06:31:33.361Z,23.48
2022-08-28T06:32:35.400Z,22.80
2022-08-28T06:33:37.741Z,22.95
2022-08-28T06:34:39.490Z,22.20
2022-08-28T06:35:46.304Z,22.08
2022-08-28T06:36:53.145Z,21.65
2022-08-28T06:37:55.641Z,21.30
2022-08-28T06:38:59.613Z,21.88
2022-08-28T06:40:01.548Z,19.83
2022-08-28T06:41:09.201Z,21.60
2022-08-28T06:42:10.904Z,22.63
2022-08-28T06:43:14.419Z,24.00
2022-08-28T06:44:19.832Z,21.17
2022-08-28T06:45:21.551Z,21.52
2022-08-28T06:46:23.918Z,22.38
2022-08-28T06:47:25.689Z,21.80
2022-08-28T06:48:28.665Z,21.27
2022-08-28T06:49:30.402Z,20.75
2022-08-28T06:50:32.150Z,21.75
2022-08-28T06:51:35.031Z,20.92
2022-08-28T06:52:36.744Z,20.75
2022-08-28T06:53:44.077Z,18.52
2022-08-28T06:54:55.327Z,20.10
2022-08-28T06:56:26.830Z,19.27
2022-08-28T06:57:28.693Z,19.55
2022-08-28T06:58:31.146Z,18.17
2022-08-28T06:59:33.136Z,19.63
2022-08-28T07:00:36.113Z,20.10
2022-08-28T07:01:38.065Z,18.33
2022-08-28T07:02:39.836Z,18.58
2022-08-28T07:03:42.607Z,18.58
2022-08-28T07:04:46.070Z,18.48
2022-08-28T07:05:47.771Z,17.85
2022-08-28T07:06:54.196Z,18.77
2022-08-28T07:07:56.429Z,19.42
2022-08-28T07:08:58.183Z,18.80
2022-08-28T07:09:59.899Z,18.83
2022-08-28T07:11:11.501Z,18.35
2022-08-28T07:12:17.752Z,19.27
2022-08-28T07:13:20.606Z,18.08
2022-08-28T07:14:22.668Z,16.63
2022-08-28T07:15:27.792Z,16.27
2022-08-28T07:16:32.780Z,17.95
2022-08-28T07:17:34.633Z,17.45
2022-08-28T07:18:37.101Z,16.17
2022-08-28T07:19:38.900Z,17.05
2022-08-28T07:20:40.843Z,18.38
2022-08-28T07:21:44.917Z,19.13
2022-08-28T07:22:46.678Z,16.45
2022-08-28T07:23:48.468Z,15.88
2022-08-28T07:24:50.267Z,18.98
2022-08-28T07:25:52.250Z,17.60
2022-08-28T07:26:54.307Z,15.68
2022-08-28T07:27:56.481Z,16.60
2022-08-28T07:29:10.363Z,15.77
2022-08-28T07:30:13.523Z,16.95
2022-08-28T07:31:22.856Z,16.33
2022-08-28T07:32:24.882Z,17.67
2022-08-28T07:33:28.524Z,17.00
2022-08-28T07:34:30.740Z,16.08
2022-08-28T07:35:33.107Z,16.25
2022-08-28T07:36:35.867Z,15.90
2022-08-28T07:37:37.622Z,15.75
2022-08-28T07:38:42.699Z,16.00
2022-08-28T07:39:44.759Z,14.93
2022-08-28T07:40:46.754Z,15.15
2022-08-28T07:41:48.780Z,16.48
2022-08-28T07:43:09.275Z,16.33
2022-08-28T07:44:31.913Z,15.25
2022-08-28T07:45:35.416Z,14.85
2022-08-28T07:46:39.241Z,15.32
2022-08-28T07:47:42.027Z,14.40
2022-08-28T07:48:45.797Z,15.25
2022-08-28T07:49:48.172Z,14.98
2022-08-28T07:50:49.871Z,14.00
2022-08-28T07:51:54.144Z,14.88
2022-08-28T07:52:57.705Z,14.98
2022-08-28T07:53:59.540Z,13.90
2022-08-28T07:55:01.346Z,14.85
2022-08-28T07:56:03.692Z,15.60
2022-08-28T07:57:06.093Z,14.98
2022-08-28T07:58:07.893Z,15.40
2022-08-28T07:59:11.427Z,14.88
2022-08-28T08:00:13.596Z,14.20
2022-08-28T08:01:17.473Z,14.95
2022-08-28T08:02:19.280Z,14.88
2022-08-28T08:03:21.715Z,15.60
2022-08-28T08:04:24.812Z,15.02
2022-08-28T08:05:26.574Z,15.73
2022-08-28T08:06:34.109Z,14.70
2022-08-28T08:07:39.766Z,14.05
2022-08-28T08:08:45.270Z,15.70
2022-08-28T08:09:47.056Z,13.93
2022-08-28T08:11:03.151Z,15.27
2022-08-28T08:12:05.589Z,14.10
2022-08-28T08:13:07.285Z,13.63
2022-08-28T08:14:09.934Z,14.85
2022-08-28T08:15:12.742Z,14.88
2022-08-28T08:16:21.166Z,14.50
2022-08-28T08:17:22.942Z,13.95
2022-08-28T08:18:24.713Z,13.82
2022-08-28T08:19:26.423Z,13.88
2022-08-28T08:20:28.629Z,14.50
2022-08-28T08:21:30.898Z,13.77
2022-08-28T08:22:33.073Z,13.95
2022-08-28T08:23:35.126Z,13.93
2022-08-28T08:24:36.815Z,13.77
2022-08-28T08:25:38.515Z,14.65
2022-08-28T08:26:45.548Z,15.30
2022-08-28T08:27:58.700Z,13.85
2022-08-28T08:29:01.101Z,13.73
2022-08-28T08:30:03.634Z,13.85
2022-08-28T08:31:13.602Z,14.02
2022-08-28T08:32:15.504Z,15.18
2022-08-28T08:33:17.283Z,14.70
2022-08-28T08:34:19.433Z,13.55
2022-08-28T08:35:21.274Z,13.50
2022-08-28T08:36:26.379Z,14.30
2022-08-28T08:37:28.098Z,14.07
2022-08-28T08:38:31.076Z,13.32
2022-08-28T08:39:34.325Z,14.07
2022-08-28T08:40:36.223Z,14.13
2022-08-28T08:41:54.876Z,13.38
2022-08-28T08:42:57.194Z,13.93
2022-08-28T08:44:14.093Z,13.43
2022-08-28T08:45:21.411Z,13.32
2022-08-28T08:46:33.256Z,13.32
2022-08-28T08:47:51.465Z,13.65
2022-08-28T08:48:55.917Z,12.65
2022-08-28T08:50:02.399Z,13.20
2022-08-28T08:51:12.538Z,14.20
2022-08-28T08:52:38.773Z,13.57
2022-08-28T08:53:51.129Z,14.10
2022-08-28T08:55:03.438Z,13.48
2022-08-28T08:56:06.348Z,13.00
2022-08-28T08:57:12.323Z,12.52
2022-08-28T08:58:25.813Z,12.13
2022-08-28T08:59:31.920Z,12.55
2022-08-28T09:00:43.115Z,12.32
2022-08-28T09:01:55.240Z,12.70
2022-08-28T09:03:15.256Z,11.45
2022-08-28T09:04:41.440Z,12.60
2022-08-28T09:06:07.729Z,11.55
2022-08-28T09:07:25.545Z,12.20
2022-08-28T09:08:45.664Z,12.90
2022-08-28T09:09:55.739Z,12.32
2022-08-28T09:11:12.418Z,12.10
2022-08-28T09:12:23.305Z,12.20
2022-08-28T09:13:49.922Z,11.90
2022-08-28T09:15:08.922Z,12.23
2022-08-28T09:16:22.163Z,12.30
2022-08-28T09:17:30.703Z,12.30
2022-08-28T09:18:34.362Z,11.45
2022-08-28T09:19:36.197Z,11.38
2022-08-28T09:20:38.866Z,11.75
2022-08-28T09:21:43.670Z,11.52
2022-08-28T09:22:47.538Z,11.75
2022-08-28T09:23:53.657Z,11.25
2022-08-28T09:24:55.462Z,12.15
2022-08-28T09:26:02.703Z,12.13
2022-08-28T09:27:12.303Z,12.05
2022-08-28T09:28:21.799Z,12.32
2022-08-28T09:29:33.249Z,11.80
2022-08-28T09:30:43.498Z,10.80
2022-08-28T09:31:45.527Z,10.40
2022-08-28T09:33:01.002Z,10.50
2022-08-28T09:34:23.771Z,11.23
2022-08-28T09:35:34.078Z,10.23
2022-08-28T09:36:38.532Z,11.43
2022-08-28T09:37:42.217Z,11.45
2022-08-28T09:38:43.967Z,9.82
2022-08-28T09:39:48.861Z,10.57
2022-08-28T09:41:26.785Z,11.13
2022-08-28T09:42:47.256Z,11.15
2022-08-28T09:43:49.030Z,11.30
2022-08-28T09:44:52.967Z,10.90
2022-08-28T09:45:58.355Z,11.75
2022-08-28T09:47:00.168Z,11.18
2022-08-28T09:48:03.557Z,11.55
2022-08-28T09:49:15.123Z,11.63
2022-08-28T09:50:40.789Z,10.90
2022-08-28T09:51:42.517Z,10.52
2022-08-28T09:52:44.238Z,9.48
2022-08-28T09:53:51.917Z,9.70
2022-08-28T09:54:54.920Z,10.48
2022-08-28T09:56:02.542Z,9.75
2022-08-28T09:57:04.464Z,9.88
2022-08-28T09:58:06.743Z,9.55
2022-08-28T09:59:26.458Z,8.32
2022-08-28T10:00:34.001Z,9.27
2022-08-28T10:01:44.723Z,9.13
2022-08-28T10:03:07.805Z,9.25
2022-08-28T10:04:15.881Z,9.65
2022-08-28T10:05:30.365Z,10.05
2022-08-28T10:06:36.261Z,9.35
2022-08-28T10:07:48.696Z,9.45
2022-08-28T10:09:34.817Z,9.68
2022-08-28T10:10:51.286Z,9.68
2022-08-28T10:12:16.068Z,9.45
2022-08-28T10:13:28.835Z,9.30
2022-08-28T10:14:38.250Z,8.95
2022-08-28T10:16:06.150Z,9.38
2022-08-28T10:17:45.942Z,9.68
2022-08-28T10:19:12.658Z,9.85
2022-08-28T10:20:24.317Z,9.02
2022-08-28T10:21:35.097Z,9.05
2022-08-28T10:23:04.620Z,9.00
2022-08-28T10:24:11.820Z,8.55
2022-08-28T10:25:23.459Z,9.40
2022-08-28T10:26:46.882Z,9.52
2022-08-28T10:27:54.119Z,9.27
2022-08-28T10:29:21.235Z,10.50
2022-08-28T10:30:24.660Z,8.88
2022-08-28T10:31:54.969Z,8.90
2022-08-28T10:33:22.665Z,8.52
2022-08-28T10:34:50.773Z,9.20
2022-08-28T10:36:06.267Z,8.38
2022-08-28T10:37:31.641Z,10.50
2022-08-28T10:38:52.934Z,9.00
2022-08-28T10:40:16.406Z,8.65
2022-08-28T10:41:21.163Z,7.93
2022-08-28T10:42:50.111Z,8.55
2022-08-28T10:43:54.543Z,7.90
2022-08-28T10:45:12.505Z,9.82
2022-08-28T10:46:22.048Z,8.48
2022-08-28T10:47:29.409Z,8.40
2022-08-28T10:48:53.802Z,8.45
2022-08-28T10:50:02.455Z,8.10
2022-08-28T10:51:44.338Z,8.18
2022-08-28T10:52:53.589Z,7.97
2022-08-28T10:54:02.935Z,8.00
2022-08-28T10:55:07.757Z,8.55
2022-08-28T10:56:15.514Z,7.47
2022-08-28T10:57:39.700Z,8.38
2022-08-28T10:58:42.165Z,8.30
2022-08-28T10:59:48.118Z,7.40
2022-08-28T11:00:50.310Z,7.53
2022-08-28T11:01:52.541Z,8.02
2022-08-28T11:03:22.286Z,8.52
2022-08-28T11:04:30.295Z,7.88
2022-08-28T11:05:39.417Z,8.15
2022-08-28T11:06:44.638Z,7.53
2022-08-28T11:07:56.624Z,8.68
2022-08-28T11:09:22.489Z,7.70
2022-08-28T11:10:34.816Z,7.15
2022-08-28T11:11:46.650Z,6.78
2022-08-28T11:12:51.749Z,6.63
2022-08-28T11:13:56.393Z,7.25
2022-08-28T11:14:58.215Z,6.95
2022-08-28T11:16:00.033Z,6.63
2022-08-28T11:17:08.412Z,6.60
2022-08-28T11:18:13.801Z,6.90
2022-08-28T11:19:43.413Z,6.32
2022-08-28T11:21:12.315Z,6.78
2022-08-28T11:22:24.726Z,6.22
2022-08-28T11:23:52.641Z,7.00
2022-08-28T11:24:57.958Z,6.70
2022-08-28T11:26:08.923Z,7.72
2022-08-28T11:27:23.619Z,7.07
2022-08-28T11:28:25.526Z,7.15
2022-08-28T11:29:55.551Z,7.55
2022-08-28T11:31:06.600Z,7.10
2022-08-28T11:32:32.768Z,6.65
2022-08-28T11:33:47.734Z,5.88
2022-08-28T11:35:12.033Z,6.18
2022-08-28T11:36:19.750Z,6.13
2022-08-28T11:37:46.055Z,6.15
2022-08-28T11:38:57.724Z,6.95
2022-08-28T11:40:22.387Z,5.82
2022-08-28T11:41:38.440Z,6.05
2022-08-28T11:42:40.221Z,6.15
2022-08-28T11:43:43.984Z,6.40
2022-08-28T11:44:46.487Z,6.18
2022-08-28T11:45:48.325Z,6.78
2022-08-28T11:46:52.221Z,5.70
2022-08-28T11:47:56.638Z,5.85
2022-08-28T11:49:00.517Z,5.90
2022-08-28T11:50:18.480Z,5.68
2022-08-28T11:51:47.849Z,5.55
2022-08-28T11:53:15.832Z,5.68
2022-08-28T11:54:56.381Z,6.15
2022-08-28T11:56:33.165Z,6.20
2022-08-28T11:59:35.020Z,5.75
2022-08-28T12:00:40.340Z,6.32
2022-08-28T12:01:42.790Z,6.30
2022-08-28T12:03:01.273Z,6.00
2022-08-28T12:04:15.418Z,6.50
2022-08-28T12:05:17.683Z,6.28
2022-08-28T12:06:45.033Z,5.88
2022-08-28T12:07:49.081Z,5.63
2022-08-28T12:08:51.403Z,6.00
2022-08-28T12:09:53.146Z,5.85
2022-08-28T12:10:57.016Z,6.38
2022-08-28T12:12:24.807Z,6.03
2022-08-28T12:13:52.693Z,5.80
2022-08-28T12:15:02.341Z,5.40
2022-08-28T12:16:06.726Z,5.75
2022-08-28T12:17:31.256Z,5.22
2022-08-28T12:18:40.218Z,6.10
2022-08-28T12:20:03.771Z,4.97
2022-08-28T12:21:12.718Z,5.38
2022-08-28T12:22:18.570Z,6.13
2022-08-28T12:23:35.797Z,5.15
2022-08-28T12:24:47.208Z,5.90
2022-08-28T12:25:50.682Z,5.70
2022-08-28T12:26:56.223Z,5.70
2022-08-28T12:28:04.872Z,7.00
2022-08-28T12:29:29.646Z,7.30
2022-08-28T12:30:40.996Z,6.68
2022-08-28T12:32:07.404Z,6.10
2022-08-28T12:33:25.456Z,6.72
2022-08-28T12:34:57.611Z,5.78
2022-08-28T12:36:02.537Z,6.47
2022-08-28T12:37:23.955Z,6.10
2022-08-28T12:38:29.207Z,6.85
2022-08-28T12:39:33.211Z,5.80
2022-08-28T12:40:37.860Z,5.97
2022-08-28T12:41:43.242Z,5.50
2022-08-28T12:43:23.053Z,6.10
2022-08-28T12:44:31.602Z,6.38
2022-08-28T12:45:51.658Z,6.20
2022-08-28T12:46:54.198Z,5.75
2022-08-28T12:48:00.124Z,5.45
2022-08-28T12:49:04.591Z,5.45
2022-08-28T12:50:38.218Z,5.53
2022-08-28T12:51:39.962Z,5.20
2022-08-28T12:52:52.117Z,5.28
2022-08-28T12:53:59.749Z,5.50
2022-08-28T12:55:01.528Z,5.75
2022-08-28T12:56:03.512Z,5.35
2022-08-28T12:57:12.861Z,5.85
2022-08-28T12:58:28.405Z,5.25
2022-08-28T12:59:37.162Z,5.53
2022-08-28T13:00:52.543Z,5.15
2022-08-28T13:01:54.686Z,5.82
2022-08-28T13:02:57.258Z,6.13
2022-08-28T13:04:25.030Z,5.97
2022-08-28T13:05:31.922Z,5.90
2022-08-28T13:06:37.277Z,5.97
2022-08-28T13:07:47.121Z,5.93
2022-08-28T13:08:49.409Z,5.80
2022-08-28T13:09:54.734Z,5.85
2022-08-28T13:10:56.738Z,5.75
2022-08-28T13:11:58.650Z,5.45
2022-08-28T13:13:06.313Z,5.43
2022-08-28T13:14:08.517Z,5.22
2022-08-28T13:15:11.353Z,4.75
2022-08-28T13:16:38.606Z,5.38
2022-08-28T13:17:52.537Z,5.20
2022-08-28T13:19:06.667Z,5.18
2022-08-28T13:20:08.825Z,4.72
2022-08-28T13:21:34.959Z,4.90
2022-08-28T13:22:41.724Z,4.95
2022-08-28T13:23:55.124Z,4.72
2022-08-28T13:25:02.373Z,5.45
2022-08-28T13:26:06.125Z,4.80
2022-08-28T13:27:19.026Z,5.43
2022-08-28T13:28:21.061Z,4.93
2022-08-28T13:29:24.770Z,5.47
2022-08-28T13:30:28.379Z,5.00
2022-08-28T13:31:35.346Z,5.55
2022-08-28T13:32:39.658Z,4.93
2022-08-28T13:33:41.382Z,5.07
2022-08-28T13:35:07.900Z,5.03
2022-08-28T13:36:21.976Z,5.10
2022-08-28T13:37:43.246Z,5.28
2022-08-28T13:38:44.956Z,5.28
2022-08-28T13:39:46.665Z,4.88
2022-08-28T13:41:03.931Z,4.70
2022-08-28T13:42:16.906Z,5.00
2022-08-28T13:43:20.170Z,4.75
2022-08-28T13:44:35.053Z,4.95
2022-08-28T13:45:43.487Z,4.82
2022-08-28T13:46:45.662Z,4.63
2022-08-28T13:47:47.502Z,4.90
2022-08-28T13:48:49.264Z,5.28
2022-08-28T13:49:50.977Z,4.47
2022-08-28T13:50:58.586Z,4.75
2022-08-28T13:52:04.141Z,4.47
2022-08-28T13:53:05.957Z,5.32
2022-08-28T13:54:07.741Z,4.60
2022-08-28T13:55:11.164Z,4.93
2022-08-28T13:56:12.866Z,5.30
2022-08-28T13:57:15.297Z,4.72
2022-08-28T13:58:17.556Z,4.95
2022-08-28T13:59:20.153Z,5.05
2022-08-28T14:00:22.111Z,5.22
2022-08-28T14:01:44.535Z,5.47
2022-08-28T14:03:04.704Z,4.90
2022-08-28T14:04:06.417Z,4.72
2022-08-28T14:05:08.232Z,5.13
2022-08-28T14:06:16.756Z,5.47
2022-08-28T14:07:18.652Z,4.68
2022-08-28T14:08:20.778Z,4.68
2022-08-28T14:09:22.681Z,4.40
2022-08-28T14:10:24.423Z,4.85
2022-08-28T14:11:26.491Z,5.00
2022-08-28T14:12:32.912Z,4.32
2022-08-28T14:13:35.272Z,4.93
2022-08-28T14:14:38.072Z,4.70
2022-08-28T14:15:40.157Z,4.50
2022-08-28T14:16:42.311Z,4.43
2022-08-28T14:17:44.878Z,4.22
2022-08-28T14:18:46.581Z,4.22
2022-08-28T14:19:49.531Z,4.95
2022-08-28T14:20:51.455Z,4.85
2022-08-28T14:21:53.240Z,4.40
2022-08-28T14:22:54.997Z,4.20
2022-08-28T14:23:56.784Z,4.78
2022-08-28T14:24:58.505Z,4.55
2022-08-28T14:26:00.215Z,4.65
2022-08-28T14:27:02.614Z,4.88